Relevés horaires Bierset (Belgique)


Relevés horaires à Bierset - Mardi 13 Oct. 2020
Heure UTC1 Température [°C] Vent [km/h] Hum. [%] Pres.4 [hPa] Visi. [Km] Nébu. [octa] Préc.5 [mm] Cond.
2m. Res. Ros. Dir.2 Vit. Moy. Raf.3
23:00 8.0 7.3 4.2 ESE 5.6 7.4 11.1 77 1014.8(1.1/3h) 30 4/8 -- --
22:00 7.7 7.7 4.4 SE 3.7 7.4 11.1 80 1014.5(1.3/3h) 30 4/8 -- --
21:00 8.4 7.7 4.5 E 5.6 5.6 16.7 76 1014.2(1.5/3h) 30 5/8 -- --
20:00 9.3 8.8 5.4 E 5.6 5.6 16.7 77 1013.6(1.5/3h) 30 7/8 -- --
19:00 9.7 9.2 5.5 E 5.6 5.6 14.8 75 1013(1.3/3h) 30 7/8 -- --
18:00 10.4 10 4.6 E 5.6 11.1 20.4 67 1012.5(1.2/3h) 30 7/8 0/12h
--
17:00 10.7 10.4 4.9 ESE 5.6 7.4 13.0 67 1011.9(0.6/3h) 30 7/8 -- --
16:00 11.1 10.8 4.7 ESE 5.6 9.3 13.0 65 1011.6(-0.1/3h) 30 7/8 -- --
15:00 11.6 11.4 4.7 SE 5.6 11.1 20.4 63 1011.2(-0.4/3h) 30 7/8 -- --
14:00 11.5 11.3 5.5 SE 5.6 9.3 16.7 67 1011.3(-0.7/3h) 30 7/8 -- --
13:00 11.0 10.7 5.2 SSE 5.6 11.1 16.7 67 1011.4(-0.7/3h) 30 7/8 -- --
12:00 11.3 10.3 5.3 SSE 9.3 11.1 22.2 67 1011.7(-0.5/3h) 30 7/8 0/6h
--
11:00 11.4 10.1 6.1 S 11.1 11.1 22.2 70 1011.9(-0.5/3h) 30 6/8 -- --
10:00 10.4 10 6.5 SSE 5.6 7.4 18.5 77 1012.2(-0.3/3h) 30 6/8 -- --
09:00 9.0 8 6.0 SSE 7.4 9.3 18.5 81 1012.4(-0.3/3h) 30 5/8 -- --
08:00 8.3 7.1 5.3 SSE 7.4 9.3 14.8 81 1012.7(-0.3/3h) 30 5/8 -- --
07:00 7.3 6 5.4 SSE 7.4 9.3 16.7 88 1012.8(-0.7/3h) 30 7/8 -- --
06:00 7.3 6 5.3 SSE 7.4 7.4 22.2 87 1012.8(-1.2/3h) 30 6/8 0/12h
--
05:00 7.4 6.1 5.8 SSE 7.4 7.4 13.0 90 1013.2(-1.3/3h) 40 6/8 -- --
04:00 7.6 6.8 6.0 S 5.6 7.4 22.2 90 1013.5(-1.5/3h) 40 6/8 -- --
03:00 7.7 6.9 6.0 S 5.6 7.4 22.2 89 1013.9(-1.9/3h) 40 6/8 -- --
02:00 8.0 6.8 6.1 S 7.4 7.4 11.1 88 1014.4(-2.1/3h) 30 7/8 -- --
01:00 8.1 6.9 6.4 SSE 7.4 7.4 14.8 89 1015(-2.2/3h) 30 7/8 -- --
00:00 8.3 7.1 6.2 SSE 7.4 7.4 13.0 87 1015.8(-1.8/3h) 30 7/8 0/6h
0.4/24h
--

1 Coordinated Universal Time. Actuellement il est 06:00 locale et 04:00 UTC.

2 Le vent souffle depuis la direction indiquée vers la direction oposée.

3 Les rafales max. sont disponible 40 min après l'heure du relevé.

4 Pour les stations d'altitude (plus de 600m) le géopotentiel du niveau le plus proche de la pression obligatoire est indiqué.

5 Les stations disposant d'un diffuseur peuvent indiquer "trace". Cela signifie que des précipitations ont touchés le sol mais que la quantité est inférieure à 0.1 mm.

Récapitulatif de la journée
Température [°C] Vent [km/h] Ensoleillement4 [h] Precipitations totale5 [mm] Pression [Hpa]
Min1 Max.2 Moy.3 Max. Min Max.
7.2 11.8 8.3 22.2 0 h 0 min 0 1011.2 1015.8

1 Température minimale relevée entre 18:00 UTC la veille et 18:00 UTC le jour donné.

2 Température maximale relevée entre 06:00 UTC le jour donné et 06:00 UTC le lendemain.

3 Vent moyen de la journée basé sur les relevés horaires.

4 Ensoleillement en heures relevé entre 06:00 UTC la veille et 06:00 UTC le jour donné.

5 Précipitations totales tombées entre 06:00 UTC la jour donné et 06:00 UTC le lendemain.

Graphiques horaires